sensor_id;sensor_type;location;lat;lon;timestamp;temperature;humidity
69418;DHT22;56610;48.872;2.400;2022-10-10T00:00:49;19.10;99.70
69418;DHT22;56610;48.872;2.400;2022-10-10T00:03:17;19.20;99.60
69418;DHT22;56610;48.872;2.400;2022-10-10T00:05:43;19.20;99.60
69418;DHT22;56610;48.872;2.400;2022-10-10T00:08:09;19.20;99.60
69418;DHT22;56610;48.872;2.400;2022-10-10T00:10:35;19.20;99.70
69418;DHT22;56610;48.872;2.400;2022-10-10T00:13:03;19.20;99.90
69418;DHT22;56610;48.872;2.400;2022-10-10T00:15:29;19.10;99.80
69418;DHT22;56610;48.872;2.400;2022-10-10T00:17:55;19.10;99.90
69418;DHT22;56610;48.872;2.400;2022-10-10T00:20:20;19.00;99.90
69418;DHT22;56610;48.872;2.400;2022-10-10T00:22:46;19.00;99.90
69418;DHT22;56610;48.872;2.400;2022-10-10T00:25:12;19.00;99.90
69418;DHT22;56610;48.872;2.400;2022-10-10T00:27:38;18.90;99.90
69418;DHT22;56610;48.872;2.400;2022-10-10T00:30:05;18.90;99.90
69418;DHT22;56610;48.872;2.400;2022-10-10T00:32:50;18.90;99.90
69418;DHT22;56610;48.872;2.400;2022-10-10T00:35:16;18.80;99.90
69418;DHT22;56610;48.872;2.400;2022-10-10T00:37:41;18.70;99.90
69418;DHT22;56610;48.872;2.400;2022-10-10T00:40:08;18.70;99.90
69418;DHT22;56610;48.872;2.400;2022-10-10T00:42:34;18.70;99.90
69418;DHT22;56610;48.872;2.400;2022-10-10T00:47:44;18.90;99.90
69418;DHT22;56610;48.872;2.400;2022-10-10T00:50:32;18.90;99.90
69418;DHT22;56610;48.872;2.400;2022-10-10T00:52:58;18.90;99.90
69418;DHT22;56610;48.872;2.400;2022-10-10T00:55:24;18.90;99.90
69418;DHT22;56610;48.872;2.400;2022-10-10T00:57:50;18.80;99.90
69418;DHT22;56610;48.872;2.400;2022-10-10T01:00:17;18.70;99.90
69418;DHT22;56610;48.872;2.400;2022-10-10T01:02:42;18.60;99.90
69418;DHT22;56610;48.872;2.400;2022-10-10T01:05:08;18.60;99.90
69418;DHT22;56610;48.872;2.400;2022-10-10T01:07:34;18.50;99.90
69418;DHT22;56610;48.872;2.400;2022-10-10T01:10:05;18.50;99.90
69418;DHT22;56610;48.872;2.400;2022-10-10T01:15:31;18.70;99.90
69418;DHT22;56610;48.872;2.400;2022-10-10T01:18:32;18.70;99.90
69418;DHT22;56610;48.872;2.400;2022-10-10T01:23:50;18.70;99.90
69418;DHT22;56610;48.872;2.400;2022-10-10T01:29:28;18.50;99.90
69418;DHT22;56610;48.872;2.400;2022-10-10T01:32:02;18.50;99.90
69418;DHT22;56610;48.872;2.400;2022-10-10T01:37:38;18.40;99.90
69418;DHT22;56610;48.872;2.400;2022-10-10T01:40:13;18.30;99.90
69418;DHT22;56610;48.872;2.400;2022-10-10T01:43:14;18.30;99.90
69418;DHT22;56610;48.872;2.400;2022-10-10T01:45:45;18.20;99.90
69418;DHT22;56610;48.872;2.400;2022-10-10T01:48:12;18.10;99.90
69418;DHT22;56610;48.872;2.400;2022-10-10T01:58:48;18.30;99.90
69418;DHT22;56610;48.872;2.400;2022-10-10T02:04:25;18.30;99.90
69418;DHT22;56610;48.872;2.400;2022-10-10T02:07:02;18.30;99.90
69418;DHT22;56610;48.872;2.400;2022-10-10T02:09:36;18.20;99.90
69418;DHT22;56610;48.872;2.400;2022-10-10T02:12:04;18.10;99.90
69418;DHT22;56610;48.872;2.400;2022-10-10T02:14:39;18.00;99.90
69418;DHT22;56610;48.872;2.400;2022-10-10T02:17:09;18.00;99.90
69418;DHT22;56610;48.872;2.400;2022-10-10T02:19:37;17.90;99.90
69418;DHT22;56610;48.872;2.400;2022-10-10T02:22:06;17.90;99.90
69418;DHT22;56610;48.872;2.400;2022-10-10T02:24:32;17.90;99.90
69418;DHT22;56610;48.872;2.400;2022-10-10T02:27:42;17.90;99.90
69418;DHT22;56610;48.872;2.400;2022-10-10T02:30:09;17.90;99.90
69418;DHT22;56610;48.872;2.400;2022-10-10T02:32:48;18.00;99.90
69418;DHT22;56610;48.872;2.400;2022-10-10T02:35:22;18.00;99.90
69418;DHT22;56610;48.872;2.400;2022-10-10T02:37:50;18.10;99.90
69418;DHT22;56610;48.872;2.400;2022-10-10T02:40:21;18.10;99.90
69418;DHT22;56610;48.872;2.400;2022-10-10T02:42:49;18.10;99.90
69418;DHT22;56610;48.872;2.400;2022-10-10T02:45:16;18.10;99.90
69418;DHT22;56610;48.872;2.400;2022-10-10T02:47:43;18.00;99.90
69418;DHT22;56610;48.872;2.400;2022-10-10T02:50:09;17.90;99.90
69418;DHT22;56610;48.872;2.400;2022-10-10T02:52:35;17.80;99.90
69418;DHT22;56610;48.872;2.400;2022-10-10T02:55:01;17.80;99.90
69418;DHT22;56610;48.872;2.400;2022-10-10T02:57:26;17.80;99.90
69418;DHT22;56610;48.872;2.400;2022-10-10T02:59:52;17.80;99.90
69418;DHT22;56610;48.872;2.400;2022-10-10T03:02:17;17.80;99.90
69418;DHT22;56610;48.872;2.400;2022-10-10T03:04:43;17.80;99.90
69418;DHT22;56610;48.872;2.400;2022-10-10T03:07:09;17.90;99.90
69418;DHT22;56610;48.872;2.400;2022-10-10T03:09:34;18.00;99.90
69418;DHT22;56610;48.872;2.400;2022-10-10T03:12:00;18.10;99.90
69418;DHT22;56610;48.872;2.400;2022-10-10T03:14:26;18.10;99.90
69418;DHT22;56610;48.872;2.400;2022-10-10T03:16:52;18.00;99.90
69418;DHT22;56610;48.872;2.400;2022-10-10T03:19:17;18.00;99.90
69418;DHT22;56610;48.872;2.400;2022-10-10T03:21:43;17.90;99.90
69418;DHT22;56610;48.872;2.400;2022-10-10T03:24:08;17.80;99.90
69418;DHT22;56610;48.872;2.400;2022-10-10T03:26:34;17.70;99.90
69418;DHT22;56610;48.872;2.400;2022-10-10T03:29:01;17.60;99.90
69418;DHT22;56610;48.872;2.400;2022-10-10T03:31:27;17.60;99.90
69418;DHT22;56610;48.872;2.400;2022-10-10T03:33:53;17.70;99.90
69418;DHT22;56610;48.872;2.400;2022-10-10T03:36:18;17.80;99.90
69418;DHT22;56610;48.872;2.400;2022-10-10T03:38:45;17.80;99.90
69418;DHT22;56610;48.872;2.400;2022-10-10T03:41:11;17.90;99.90
69418;DHT22;56610;48.872;2.400;2022-10-10T03:43:37;17.80;99.90
69418;DHT22;56610;48.872;2.400;2022-10-10T03:46:02;17.80;99.90
69418;DHT22;56610;48.872;2.400;2022-10-10T03:48:28;17.70;99.90
69418;DHT22;56610;48.872;2.400;2022-10-10T03:50:54;17.70;99.90
69418;DHT22;56610;48.872;2.400;2022-10-10T03:53:19;17.60;99.90
69418;DHT22;56610;48.872;2.400;2022-10-10T03:55:45;17.60;99.90
69418;DHT22;56610;48.872;2.400;2022-10-10T03:58:11;17.60;99.90
69418;DHT22;56610;48.872;2.400;2022-10-10T04:00:37;17.60;99.90
69418;DHT22;56610;48.872;2.400;2022-10-10T04:03:03;17.60;99.90
69418;DHT22;56610;48.872;2.400;2022-10-10T04:05:37;17.60;99.90
69418;DHT22;56610;48.872;2.400;2022-10-10T04:08:04;17.70;99.90
69418;DHT22;56610;48.872;2.400;2022-10-10T04:10:30;17.80;99.90
69418;DHT22;56610;48.872;2.400;2022-10-10T04:12:56;17.80;99.90
69418;DHT22;56610;48.872;2.400;2022-10-10T04:15:23;17.90;99.90
69418;DHT22;56610;48.872;2.400;2022-10-10T04:17:49;17.90;99.90
69418;DHT22;56610;48.872;2.400;2022-10-10T04:20:15;17.80;99.90
69418;DHT22;56610;48.872;2.400;2022-10-10T04:22:42;17.80;99.90
69418;DHT22;56610;48.872;2.400;2022-10-10T04:25:09;17.80;99.90
69418;DHT22;56610;48.872;2.400;2022-10-10T04:27:34;17.80;99.90
69418;DHT22;56610;48.872;2.400;2022-10-10T04:30:00;17.70;99.90
69418;DHT22;56610;48.872;2.400;2022-10-10T04:32:25;17.70;99.90
69418;DHT22;56610;48.872;2.400;2022-10-10T04:34:51;17.70;99.90
69418;DHT22;56610;48.872;2.400;2022-10-10T04:37:17;17.70;99.90
69418;DHT22;56610;48.872;2.400;2022-10-10T04:39:42;17.70;99.90
69418;DHT22;56610;48.872;2.400;2022-10-10T04:42:08;17.80;99.90
69418;DHT22;56610;48.872;2.400;2022-10-10T04:44:33;17.70;99.90
69418;DHT22;56610;48.872;2.400;2022-10-10T04:46:59;17.80;99.90
69418;DHT22;56610;48.872;2.400;2022-10-10T04:49:24;17.80;99.90
69418;DHT22;56610;48.872;2.400;2022-10-10T04:51:50;17.70;99.90
69418;DHT22;56610;48.872;2.400;2022-10-10T04:54:16;17.70;99.90
69418;DHT22;56610;48.872;2.400;2022-10-10T04:56:41;17.70;99.90
69418;DHT22;56610;48.872;2.400;2022-10-10T04:59:08;17.60;99.90
69418;DHT22;56610;48.872;2.400;2022-10-10T05:01:34;17.60;99.90
69418;DHT22;56610;48.872;2.400;2022-10-10T05:04:00;17.50;99.90
69418;DHT22;56610;48.872;2.400;2022-10-10T05:06:25;17.50;99.90
69418;DHT22;56610;48.872;2.400;2022-10-10T05:08:51;17.50;99.90
69418;DHT22;56610;48.872;2.400;2022-10-10T05:11:17;17.50;99.90
69418;DHT22;56610;48.872;2.400;2022-10-10T05:13:42;17.60;99.90
69418;DHT22;56610;48.872;2.400;2022-10-10T05:16:08;17.70;99.90
69418;DHT22;56610;48.872;2.400;2022-10-10T05:18:34;17.70;99.90
69418;DHT22;56610;48.872;2.400;2022-10-10T05:21:02;17.70;99.90
69418;DHT22;56610;48.872;2.400;2022-10-10T05:23:28;17.70;99.90
69418;DHT22;56610;48.872;2.400;2022-10-10T05:25:53;17.70;99.90
69418;DHT22;56610;48.872;2.400;2022-10-10T05:28:19;17.70;99.90
69418;DHT22;56610;48.872;2.400;2022-10-10T05:30:44;17.60;99.90
69418;DHT22;56610;48.872;2.400;2022-10-10T05:36:07;17.50;99.90
69418;DHT22;56610;48.872;2.400;2022-10-10T05:38:34;17.40;99.90
69418;DHT22;56610;48.872;2.400;2022-10-10T05:41:00;17.40;99.90
69418;DHT22;56610;48.872;2.400;2022-10-10T05:43:26;17.30;99.90
69418;DHT22;56610;48.872;2.400;2022-10-10T05:45:52;17.30;99.90
69418;DHT22;56610;48.872;2.400;2022-10-10T05:48:18;17.30;99.90
69418;DHT22;56610;48.872;2.400;2022-10-10T05:50:50;17.40;99.90
69418;DHT22;56610;48.872;2.400;2022-10-10T05:53:16;17.50;99.90
69418;DHT22;56610;48.872;2.400;2022-10-10T05:55:42;17.50;99.90
69418;DHT22;56610;48.872;2.400;2022-10-10T05:58:09;17.50;99.90
69418;DHT22;56610;48.872;2.400;2022-10-10T06:00:35;17.50;99.90
69418;DHT22;56610;48.872;2.400;2022-10-10T06:03:01;17.40;99.90
69418;DHT22;56610;48.872;2.400;2022-10-10T06:05:50;17.40;99.90
69418;DHT22;56610;48.872;2.400;2022-10-10T06:08:15;17.20;99.90
69418;DHT22;56610;48.872;2.400;2022-10-10T06:10:44;17.20;99.90
69418;DHT22;56610;48.872;2.400;2022-10-10T06:13:11;17.20;99.90
69418;DHT22;56610;48.872;2.400;2022-10-10T06:15:37;17.20;99.90
69418;DHT22;56610;48.872;2.400;2022-10-10T06:18:03;17.20;99.90
69418;DHT22;56610;48.872;2.400;2022-10-10T06:20:28;17.20;99.90
69418;DHT22;56610;48.872;2.400;2022-10-10T06:22:54;17.30;99.90
69418;DHT22;56610;48.872;2.400;2022-10-10T06:25:20;17.40;99.90
69418;DHT22;56610;48.872;2.400;2022-10-10T06:27:45;17.50;99.90
69418;DHT22;56610;48.872;2.400;2022-10-10T06:30:11;17.40;99.90
69418;DHT22;56610;48.872;2.400;2022-10-10T06:32:37;17.50;99.90
69418;DHT22;56610;48.872;2.400;2022-10-10T06:35:03;17.40;99.90
69418;DHT22;56610;48.872;2.400;2022-10-10T06:37:28;17.40;99.90
69418;DHT22;56610;48.872;2.400;2022-10-10T06:39:54;17.40;99.90
69418;DHT22;56610;48.872;2.400;2022-10-10T06:42:21;17.40;99.90
69418;DHT22;56610;48.872;2.400;2022-10-10T06:44:46;17.30;99.90
69418;DHT22;56610;48.872;2.400;2022-10-10T06:47:12;17.40;99.90
69418;DHT22;56610;48.872;2.400;2022-10-10T06:49:37;17.40;99.90
69418;DHT22;56610;48.872;2.400;2022-10-10T06:52:03;17.40;99.90
69418;DHT22;56610;48.872;2.400;2022-10-10T06:54:29;17.40;99.90
69418;DHT22;56610;48.872;2.400;2022-10-10T06:56:54;17.50;99.90
69418;DHT22;56610;48.872;2.400;2022-10-10T06:59:20;17.60;99.90
69418;DHT22;56610;48.872;2.400;2022-10-10T07:01:45;17.60;99.90
69418;DHT22;56610;48.872;2.400;2022-10-10T07:04:11;17.60;99.90
69418;DHT22;56610;48.872;2.400;2022-10-10T07:06:38;17.60;99.90
69418;DHT22;56610;48.872;2.400;2022-10-10T07:09:03;17.50;99.90
69418;DHT22;56610;48.872;2.400;2022-10-10T07:11:29;17.60;99.90
69418;DHT22;56610;48.872;2.400;2022-10-10T07:13:55;17.50;99.90
69418;DHT22;56610;48.872;2.400;2022-10-10T07:16:21;17.60;99.90
69418;DHT22;56610;48.872;2.400;2022-10-10T07:18:47;17.70;99.90
69418;DHT22;56610;48.872;2.400;2022-10-10T07:21:13;17.90;99.90
69418;DHT22;56610;48.872;2.400;2022-10-10T07:23:39;18.10;99.90
69418;DHT22;56610;48.872;2.400;2022-10-10T07:26:07;18.30;99.90
69418;DHT22;56610;48.872;2.400;2022-10-10T07:28:35;18.50;99.90
69418;DHT22;56610;48.872;2.400;2022-10-10T07:31:04;18.40;99.90
69418;DHT22;56610;48.872;2.400;2022-10-10T07:33:33;18.40;99.90
69418;DHT22;56610;48.872;2.400;2022-10-10T07:35:59;18.40;99.90
69418;DHT22;56610;48.872;2.400;2022-10-10T07:38:24;18.40;99.90
69418;DHT22;56610;48.872;2.400;2022-10-10T07:40:50;18.30;99.90
69418;DHT22;56610;48.872;2.400;2022-10-10T07:43:16;18.20;99.90
69418;DHT22;56610;48.872;2.400;2022-10-10T07:45:42;18.20;99.90
69418;DHT22;56610;48.872;2.400;2022-10-10T07:48:07;18.30;99.90
69418;DHT22;56610;48.872;2.400;2022-10-10T07:50:33;18.30;99.90
69418;DHT22;56610;48.872;2.400;2022-10-10T07:52:59;18.50;99.90
69418;DHT22;56610;48.872;2.400;2022-10-10T07:55:27;18.50;99.90
69418;DHT22;56610;48.872;2.400;2022-10-10T07:57:52;18.60;99.90
69418;DHT22;56610;48.872;2.400;2022-10-10T08:00:18;18.60;99.90
69418;DHT22;56610;48.872;2.400;2022-10-10T08:02:44;18.60;99.90
69418;DHT22;56610;48.872;2.400;2022-10-10T08:05:09;18.70;99.90
69418;DHT22;56610;48.872;2.400;2022-10-10T08:07:36;18.70;99.90
69418;DHT22;56610;48.872;2.400;2022-10-10T08:10:02;18.70;99.90
69418;DHT22;56610;48.872;2.400;2022-10-10T08:12:28;18.70;99.90
69418;DHT22;56610;48.872;2.400;2022-10-10T08:14:54;18.70;99.90
69418;DHT22;56610;48.872;2.400;2022-10-10T08:17:19;18.70;99.90
69418;DHT22;56610;48.872;2.400;2022-10-10T08:19:45;18.70;99.90
69418;DHT22;56610;48.872;2.400;2022-10-10T08:22:11;18.80;99.90
69418;DHT22;56610;48.872;2.400;2022-10-10T08:24:37;18.70;99.90
69418;DHT22;56610;48.872;2.400;2022-10-10T08:27:23;18.70;99.90
69418;DHT22;56610;48.872;2.400;2022-10-10T08:29:48;18.80;99.90
69418;DHT22;56610;48.872;2.400;2022-10-10T08:32:14;18.80;99.90
69418;DHT22;56610;48.872;2.400;2022-10-10T08:34:39;18.80;99.90
69418;DHT22;56610;48.872;2.400;2022-10-10T08:37:05;18.90;99.90
69418;DHT22;56610;48.872;2.400;2022-10-10T08:39:31;18.90;99.90
69418;DHT22;56610;48.872;2.400;2022-10-10T08:41:59;19.00;99.90
69418;DHT22;56610;48.872;2.400;2022-10-10T08:44:32;19.00;99.90
69418;DHT22;56610;48.872;2.400;2022-10-10T08:47:05;18.80;99.90
69418;DHT22;56610;48.872;2.400;2022-10-10T08:49:40;18.70;99.90
69418;DHT22;56610;48.872;2.400;2022-10-10T08:52:13;18.50;99.90
69418;DHT22;56610;48.872;2.400;2022-10-10T08:54:43;18.60;99.90
69418;DHT22;56610;48.872;2.400;2022-10-10T08:57:16;18.70;99.90
69418;DHT22;56610;48.872;2.400;2022-10-10T08:59:47;18.40;99.90
69418;DHT22;56610;48.872;2.400;2022-10-10T09:05:02;18.80;99.90
69418;DHT22;56610;48.872;2.400;2022-10-10T09:10:34;18.80;99.90
69418;DHT22;56610;48.872;2.400;2022-10-10T09:13:14;18.80;99.90
69418;DHT22;56610;48.872;2.400;2022-10-10T09:16:01;18.80;99.90
69418;DHT22;56610;48.872;2.400;2022-10-10T09:18:50;18.80;99.90
69418;DHT22;56610;48.872;2.400;2022-10-10T09:21:31;18.80;99.90
69418;DHT22;56610;48.872;2.400;2022-10-10T09:24:08;18.80;99.90
69418;DHT22;56610;48.872;2.400;2022-10-10T09:26:46;18.80;99.90
69418;DHT22;56610;48.872;2.400;2022-10-10T09:31:59;18.50;99.90
69418;DHT22;56610;48.872;2.400;2022-10-10T09:37:03;18.40;99.90
69418;DHT22;56610;48.872;2.400;2022-10-10T09:42:35;18.50;99.90
69418;DHT22;56610;48.872;2.400;2022-10-10T09:45:01;18.70;99.90
69418;DHT22;56610;48.872;2.400;2022-10-10T09:47:28;18.60;99.90
69418;DHT22;56610;48.872;2.400;2022-10-10T09:49:54;18.50;99.90
69418;DHT22;56610;48.872;2.400;2022-10-10T09:52:24;18.60;99.90
69418;DHT22;56610;48.872;2.400;2022-10-10T09:54:59;18.80;99.90
69418;DHT22;56610;48.872;2.400;2022-10-10T09:57:35;18.80;99.90
69418;DHT22;56610;48.872;2.400;2022-10-10T10:02:47;18.80;99.90
69418;DHT22;56610;48.872;2.400;2022-10-10T10:05:26;18.70;99.90
69418;DHT22;56610;48.872;2.400;2022-10-10T10:07:52;18.70;99.90
69418;DHT22;56610;48.872;2.400;2022-10-10T10:10:23;18.80;99.90
69418;DHT22;56610;48.872;2.400;2022-10-10T10:12:51;18.60;99.90
69418;DHT22;56610;48.872;2.400;2022-10-10T10:15:20;18.60;99.90
69418;DHT22;56610;48.872;2.400;2022-10-10T10:18:08;18.50;99.90
69418;DHT22;56610;48.872;2.400;2022-10-10T10:20:36;18.60;99.90
69418;DHT22;56610;48.872;2.400;2022-10-10T10:23:02;18.80;99.90
69418;DHT22;56610;48.872;2.400;2022-10-10T10:25:32;18.90;99.90
69418;DHT22;56610;48.872;2.400;2022-10-10T10:28:19;18.80;99.90
69418;DHT22;56610;48.872;2.400;2022-10-10T10:30:45;18.70;99.90
69418;DHT22;56610;48.872;2.400;2022-10-10T10:38:54;18.80;99.90
69418;DHT22;56610;48.872;2.400;2022-10-10T10:41:32;18.80;99.90
69418;DHT22;56610;48.872;2.400;2022-10-10T10:55:38;19.10;99.90
69418;DHT22;56610;48.872;2.400;2022-10-10T11:01:01;19.20;99.90
69418;DHT22;56610;48.872;2.400;2022-10-10T11:03:50;19.20;99.90
69418;DHT22;56610;48.872;2.400;2022-10-10T11:09:11;19.30;99.90
69418;DHT22;56610;48.872;2.400;2022-10-10T11:11:59;19.50;99.90
69418;DHT22;56610;48.872;2.400;2022-10-10T11:17:28;19.60;99.90
69418;DHT22;56610;48.872;2.400;2022-10-10T11:20:29;19.70;99.90
69418;DHT22;56610;48.872;2.400;2022-10-10T11:23:30;19.70;99.90
69418;DHT22;56610;48.872;2.400;2022-10-10T11:26:04;19.70;99.90
69418;DHT22;56610;48.872;2.400;2022-10-10T11:28:35;19.80;99.90
69418;DHT22;56610;48.872;2.400;2022-10-10T11:31:09;20.00;99.90
69418;DHT22;56610;48.872;2.400;2022-10-10T11:33:43;20.10;99.90
69418;DHT22;56610;48.872;2.400;2022-10-10T11:36:20;20.20;99.90
69418;DHT22;56610;48.872;2.400;2022-10-10T11:41:24;20.40;99.90
69418;DHT22;56610;48.872;2.400;2022-10-10T11:44:02;20.50;99.90
69418;DHT22;56610;48.872;2.400;2022-10-10T11:46:41;20.50;99.90
69418;DHT22;56610;48.872;2.400;2022-10-10T11:49:17;20.60;99.90
69418;DHT22;56610;48.872;2.400;2022-10-10T11:54:40;20.50;99.90
69418;DHT22;56610;48.872;2.400;2022-10-10T11:57:20;20.70;99.90
69418;DHT22;56610;48.872;2.400;2022-10-10T12:00:08;20.60;99.90
69418;DHT22;56610;48.872;2.400;2022-10-10T12:02:36;20.60;99.90
69418;DHT22;56610;48.872;2.400;2022-10-10T12:05:06;20.50;99.90
69418;DHT22;56610;48.872;2.400;2022-10-10T12:13:29;20.60;99.90
69418;DHT22;56610;48.872;2.400;2022-10-10T12:15:57;20.50;99.90
69418;DHT22;56610;48.872;2.400;2022-10-10T12:21:30;20.80;99.90
69418;DHT22;56610;48.872;2.400;2022-10-10T12:27:18;20.90;99.90
69418;DHT22;56610;48.872;2.400;2022-10-10T12:32:26;20.90;99.90
69418;DHT22;56610;48.872;2.400;2022-10-10T12:37:27;20.90;99.90
69418;DHT22;56610;48.872;2.400;2022-10-10T12:42:59;20.90;99.90
69418;DHT22;56610;48.872;2.400;2022-10-10T12:50:23;20.80;99.90
69418;DHT22;56610;48.872;2.400;2022-10-10T12:52:58;20.90;99.90
69418;DHT22;56610;48.872;2.400;2022-10-10T12:58:01;20.80;99.90
69418;DHT22;56610;48.872;2.400;2022-10-10T13:00:39;20.90;99.90
69418;DHT22;56610;48.872;2.400;2022-10-10T13:05:43;21.10;99.90
69418;DHT22;56610;48.872;2.400;2022-10-10T13:08:18;21.20;99.90
69418;DHT22;56610;48.872;2.400;2022-10-10T13:13:29;21.20;99.90
69418;DHT22;56610;48.872;2.400;2022-10-10T13:15:57;21.30;99.90
69418;DHT22;56610;48.872;2.400;2022-10-10T13:18:33;21.50;99.90
69418;DHT22;56610;48.872;2.400;2022-10-10T13:21:00;21.70;99.90
69418;DHT22;56610;48.872;2.400;2022-10-10T13:23:26;22.00;99.90
69418;DHT22;56610;48.872;2.400;2022-10-10T13:25:51;22.40;99.90
69418;DHT22;56610;48.872;2.400;2022-10-10T13:28:19;22.70;99.90
69418;DHT22;56610;48.872;2.400;2022-10-10T13:30:45;22.80;99.90
69418;DHT22;56610;48.872;2.400;2022-10-10T13:33:32;23.10;99.90
69418;DHT22;56610;48.872;2.400;2022-10-10T13:36:04;23.50;99.90
69418;DHT22;56610;48.872;2.400;2022-10-10T13:38:31;23.50;99.90
69418;DHT22;56610;48.872;2.400;2022-10-10T13:40:57;23.40;99.90
69418;DHT22;56610;48.872;2.400;2022-10-10T13:43:23;23.60;99.90
69418;DHT22;56610;48.872;2.400;2022-10-10T13:45:55;23.50;99.90
69418;DHT22;56610;48.872;2.400;2022-10-10T13:51:19;23.70;99.90
69418;DHT22;56610;48.872;2.400;2022-10-10T13:54:03;23.40;99.90
69418;DHT22;56610;48.872;2.400;2022-10-10T13:56:37;23.40;99.90
69418;DHT22;56610;48.872;2.400;2022-10-10T13:59:12;23.50;99.90
69418;DHT22;56610;48.872;2.400;2022-10-10T14:01:44;23.50;99.90
69418;DHT22;56610;48.872;2.400;2022-10-10T14:04:42;23.60;99.90
69418;DHT22;56610;48.872;2.400;2022-10-10T14:07:27;23.60;99.90
69418;DHT22;56610;48.872;2.400;2022-10-10T14:09:58;23.70;99.90
69418;DHT22;56610;48.872;2.400;2022-10-10T14:12:31;23.80;99.90
69418;DHT22;56610;48.872;2.400;2022-10-10T14:14:59;24.10;99.90
69418;DHT22;56610;48.872;2.400;2022-10-10T14:17:26;24.10;99.90
69418;DHT22;56610;48.872;2.400;2022-10-10T14:19:52;24.00;99.90
69418;DHT22;56610;48.872;2.400;2022-10-10T14:22:18;24.00;99.90
69418;DHT22;56610;48.872;2.400;2022-10-10T14:24:44;23.90;99.90
69418;DHT22;56610;48.872;2.400;2022-10-10T14:27:14;23.80;99.90
69418;DHT22;56610;48.872;2.400;2022-10-10T14:29:41;23.60;99.90
69418;DHT22;56610;48.872;2.400;2022-10-10T14:32:11;23.50;99.90
69418;DHT22;56610;48.872;2.400;2022-10-10T14:34:36;23.20;99.90
69418;DHT22;56610;48.872;2.400;2022-10-10T14:37:02;23.10;99.90
69418;DHT22;56610;48.872;2.400;2022-10-10T14:39:28;23.00;99.90
69418;DHT22;56610;48.872;2.400;2022-10-10T14:41:53;22.90;99.90
69418;DHT22;56610;48.872;2.400;2022-10-10T14:44:19;22.70;99.90
69418;DHT22;56610;48.872;2.400;2022-10-10T14:46:47;22.50;99.90
69418;DHT22;56610;48.872;2.400;2022-10-10T14:49:18;22.40;99.90
69418;DHT22;56610;48.872;2.400;2022-10-10T14:51:49;22.20;99.90
69418;DHT22;56610;48.872;2.400;2022-10-10T14:54:15;22.10;99.90
69418;DHT22;56610;48.872;2.400;2022-10-10T14:57:01;22.00;99.90
69418;DHT22;56610;48.872;2.400;2022-10-10T14:59:29;21.80;99.90
69418;DHT22;56610;48.872;2.400;2022-10-10T15:01:55;21.80;99.90
69418;DHT22;56610;48.872;2.400;2022-10-10T15:04:21;21.70;99.90
69418;DHT22;56610;48.872;2.400;2022-10-10T15:06:46;21.70;99.90
69418;DHT22;56610;48.872;2.400;2022-10-10T15:09:12;21.60;99.90
69418;DHT22;56610;48.872;2.400;2022-10-10T15:11:38;21.70;99.90
69418;DHT22;56610;48.872;2.400;2022-10-10T15:14:04;21.60;99.90
69418;DHT22;56610;48.872;2.400;2022-10-10T15:16:30;21.60;99.90
69418;DHT22;56610;48.872;2.400;2022-10-10T15:18:58;21.50;99.90
69418;DHT22;56610;48.872;2.400;2022-10-10T15:21:24;21.50;99.90
69418;DHT22;56610;48.872;2.400;2022-10-10T15:23:49;21.50;99.90
69418;DHT22;56610;48.872;2.400;2022-10-10T15:26:20;21.40;99.90
69418;DHT22;56610;48.872;2.400;2022-10-10T15:28:47;21.40;99.90
69418;DHT22;56610;48.872;2.400;2022-10-10T15:31:13;21.30;99.90
69418;DHT22;56610;48.872;2.400;2022-10-10T15:33:38;21.20;99.90
69418;DHT22;56610;48.872;2.400;2022-10-10T15:36:06;21.20;99.90
69418;DHT22;56610;48.872;2.400;2022-10-10T15:38:34;21.10;99.90
69418;DHT22;56610;48.872;2.400;2022-10-10T15:41:05;21.10;99.90
69418;DHT22;56610;48.872;2.400;2022-10-10T15:43:43;21.00;99.90
69418;DHT22;56610;48.872;2.400;2022-10-10T15:46:09;21.10;99.90
69418;DHT22;56610;48.872;2.400;2022-10-10T15:48:35;21.10;99.90
69418;DHT22;56610;48.872;2.400;2022-10-10T15:51:04;21.10;99.90
69418;DHT22;56610;48.872;2.400;2022-10-10T15:53:30;21.00;99.90
69418;DHT22;56610;48.872;2.400;2022-10-10T15:55:55;21.00;99.90
69418;DHT22;56610;48.872;2.400;2022-10-10T15:58:21;21.00;99.90
69418;DHT22;56610;48.872;2.400;2022-10-10T16:00:46;21.10;99.90
69418;DHT22;56610;48.872;2.400;2022-10-10T16:03:12;21.20;99.90
69418;DHT22;56610;48.872;2.400;2022-10-10T16:05:39;21.30;99.90
69418;DHT22;56610;48.872;2.400;2022-10-10T16:08:05;21.30;99.90
69418;DHT22;56610;48.872;2.400;2022-10-10T16:10:36;21.30;99.90
69418;DHT22;56610;48.872;2.400;2022-10-10T16:13:02;21.40;99.90
69418;DHT22;56610;48.872;2.400;2022-10-10T16:15:28;21.50;99.90
69418;DHT22;56610;48.872;2.400;2022-10-10T16:17:53;21.50;99.90
69418;DHT22;56610;48.872;2.400;2022-10-10T16:20:19;21.50;99.90
69418;DHT22;56610;48.872;2.400;2022-10-10T16:22:44;21.40;99.90
69418;DHT22;56610;48.872;2.400;2022-10-10T16:25:10;21.30;99.90
69418;DHT22;56610;48.872;2.400;2022-10-10T16:27:36;21.40;99.90
69418;DHT22;56610;48.872;2.400;2022-10-10T16:30:02;21.30;99.90
69418;DHT22;56610;48.872;2.400;2022-10-10T16:32:28;21.30;99.90
69418;DHT22;56610;48.872;2.400;2022-10-10T16:34:54;21.20;99.90
69418;DHT22;56610;48.872;2.400;2022-10-10T16:37:19;21.30;99.90
69418;DHT22;56610;48.872;2.400;2022-10-10T16:39:45;21.30;99.90
69418;DHT22;56610;48.872;2.400;2022-10-10T16:42:10;21.30;99.90
69418;DHT22;56610;48.872;2.400;2022-10-10T16:44:36;21.40;99.90
69418;DHT22;56610;48.872;2.400;2022-10-10T16:47:02;21.40;99.90
69418;DHT22;56610;48.872;2.400;2022-10-10T16:49:27;21.40;99.90
69418;DHT22;56610;48.872;2.400;2022-10-10T16:51:53;21.30;99.90
69418;DHT22;56610;48.872;2.400;2022-10-10T16:54:18;21.30;99.90
69418;DHT22;56610;48.872;2.400;2022-10-10T16:56:44;21.50;99.90
69418;DHT22;56610;48.872;2.400;2022-10-10T16:59:12;21.70;99.90
69418;DHT22;56610;48.872;2.400;2022-10-10T17:01:38;21.80;99.90
69418;DHT22;56610;48.872;2.400;2022-10-10T17:04:03;22.00;99.90
69418;DHT22;56610;48.872;2.400;2022-10-10T17:06:29;22.00;99.90
69418;DHT22;56610;48.872;2.400;2022-10-10T17:09:02;21.90;99.90
69418;DHT22;56610;48.872;2.400;2022-10-10T17:11:30;21.90;99.90
69418;DHT22;56610;48.872;2.400;2022-10-10T17:13:58;21.80;99.90
69418;DHT22;56610;48.872;2.400;2022-10-10T17:16:26;21.70;99.90
69418;DHT22;56610;48.872;2.400;2022-10-10T17:18:52;21.70;99.90
69418;DHT22;56610;48.872;2.400;2022-10-10T17:21:20;21.80;99.90
69418;DHT22;56610;48.872;2.400;2022-10-10T17:23:47;21.80;99.90
69418;DHT22;56610;48.872;2.400;2022-10-10T17:26:17;21.90;99.90
69418;DHT22;56610;48.872;2.400;2022-10-10T17:28:43;22.00;99.90
69418;DHT22;56610;48.872;2.400;2022-10-10T17:31:11;22.00;99.90
69418;DHT22;56610;48.872;2.400;2022-10-10T17:33:42;21.90;99.90